Terminal Aerodrome Forecast
Issued by NWS New Orleans/Baton Rouge, LA

Home | Current Version | Previous Version | Text Only | Print | Product List | Glossary On
Versions: 1 2 3 4 5 6 7 8 9 10 11 12 13 14
000
FTUS44 KLIX 250529
TAFNEW
TAF
KNEW 250529Z 2506/2606 14007KT P6SM SCT200
     FM251300 15007KT P6SM BKN080
     FM251900 13011KT P6SM BKN060
     FM260200 15007KT P6SM BKN140=

USA.gov is the U.S. government's official web portal to all federal, state and local government web resources and services.